Time;durP1;ratioP1;P1;durP2;ratioP2;P2;SDS_P1;SDS_P2;PMS_P1;PMS_P2;Temp;Humidity;BMP_temperature;BMP_pressure;BME280_temperature;BME280_humidity;BME280_pressure;Samples;Min_cycle;Max_cycle;Signal;HPM_P1;HPM_P2
2023/01/06 00:01:33;;;;;;;10.82;3.28;;;;;;;9.75;100.00;101619.34;5074128;28;20072;-53
2023/01/06 00:04:02;;;;;;;9.75;3.13;;;;;;;9.74;100.00;101618.50;5072022;28;20763;-54
2023/01/06 00:06:32;;;;;;;12.05;3.40;;;;;;;9.72;100.00;101622.13;5072432;28;20051;-53
2023/01/06 00:09:02;;;;;;;9.77;3.22;;;;;;;9.70;100.00;101618.72;5074978;28;20051;-52
2023/01/06 00:11:32;;;;;;;11.90;3.22;;;;;;;9.70;100.00;101609.06;5075265;28;20044;-59
2023/01/06 00:14:00;;;;;;;11.02;3.38;;;;;;;9.71;100.00;101609.94;5075228;28;20060;-60
2023/01/06 00:16:29;;;;;;;8.48;3.63;;;;;;;9.70;100.00;101610.84;5070121;28;20091;-54
2023/01/06 00:18:59;;;;;;;11.38;3.63;;;;;;;9.69;100.00;101596.00;5071543;28;20074;-53
2023/01/06 00:21:27;;;;;;;9.68;3.72;;;;;;;9.71;100.00;101597.63;5074143;28;20110;-53
2023/01/06 00:23:57;;;;;;;10.98;4.00;;;;;;;9.70;100.00;101598.56;5074896;28;20454;-54
2023/01/06 00:26:25;;;;;;;8.48;3.92;;;;;;;9.70;100.00;101593.28;5074552;28;20487;-60
2023/01/06 00:28:54;;;;;;;9.75;4.15;;;;;;;9.67;100.00;101595.22;5071071;28;20091;-60
2023/01/06 00:31:23;;;;;;;9.75;3.63;;;;;;;9.64;100.00;101589.19;5069898;28;20048;-60
2023/01/06 00:33:51;;;;;;;9.27;4.03;;;;;;;9.66;100.00;101596.16;5074294;28;20044;-59
2023/01/06 00:36:21;;;;;;;8.20;3.70;;;;;;;9.64;100.00;101593.63;5074436;28;20044;-59
2023/01/06 00:38:50;;;;;;;7.72;3.45;;;;;;;9.63;100.00;101594.53;5075143;28;20045;-59
2023/01/06 00:44:07;;;;;;;9.75;3.50;;;;;;;9.62;100.00;101593.66;5074946;28;20075;-59
2023/01/06 00:46:35;;;;;;;8.27;3.53;;;;;;;9.60;100.00;101592.91;5074474;28;20047;-61
2023/01/06 00:49:07;;;;;;;9.65;3.25;;;;;;;9.65;100.00;101587.41;5073926;28;20143;-60
2023/01/06 00:51:36;;;;;;;10.00;3.42;;;;;;;9.64;100.00;101596.25;5074600;28;20079;-53
2023/01/06 00:54:05;;;;;;;7.55;3.15;;;;;;;9.71;100.00;101586.28;5074284;28;20399;-58
2023/01/06 00:56:37;;;;;;;7.38;3.70;;;;;;;9.67;100.00;101596.09;5073766;28;20044;-59
2023/01/06 00:59:06;;;;;;;11.68;3.67;;;;;;;9.68;100.00;101597.78;5070718;28;20040;-59
2023/01/06 01:01:35;;;;;;;10.73;3.40;;;;;;;9.64;100.00;101589.19;5072213;28;20074;-59
2023/01/06 01:04:04;;;;;;;15.70;3.88;;;;;;;9.66;100.00;101591.75;5073827;28;20044;-60
2023/01/06 01:06:32;;;;;;;10.75;3.50;;;;;;;9.67;100.00;101582.94;5073525;28;20128;-59
2023/01/06 01:09:01;;;;;;;9.57;3.22;;;;;;;9.73;100.00;101594.94;5074215;28;20079;-59
2023/01/06 01:14:17;;;;;;;10.05;3.25;;;;;;;9.69;100.00;101596.00;5066832;28;20549;-52
2023/01/06 01:16:46;;;;;;;10.27;3.53;;;;;;;9.67;100.00;101593.47;5072744;28;20057;-51
2023/01/06 01:19:14;;;;;;;8.23;3.15;;;;;;;9.68;100.00;101595.16;5070612;28;20407;-51
2023/01/06 01:21:42;;;;;;;10.70;3.40;;;;;;;9.67;100.00;101590.84;5070894;28;20048;-49
2023/01/06 01:24:11;;;;;;;10.55;2.97;;;;;;;9.71;100.00;101589.75;5072021;28;20072;-52
2023/01/06 01:26:39;;;;;;;7.68;3.10;;;;;;;9.72;100.00;101598.47;5068649;28;20118;-53
2023/01/06 01:29:10;;;;;;;9.32;3.20;;;;;;;9.70;100.00;101590.66;5072662;28;20053;-51
2023/01/06 01:31:40;;;;;;;7.93;3.22;;;;;;;9.71;100.00;101596.78;5073667;28;20052;-50
2023/01/06 01:34:09;;;;;;;8.77;3.75;;;;;;;9.71;100.00;101592.38;5073461;28;20445;-53
2023/01/06 01:36:39;;;;;;;8.50;3.30;;;;;;;9.70;100.00;101588.03;5073415;28;20056;-53
2023/01/06 01:39:08;;;;;;;5.82;3.15;;;;;;;9.73;100.00;101581.78;5073011;28;20076;-53
2023/01/06 01:41:36;;;;;;;9.95;3.20;;;;;;;9.73;100.00;101571.28;5072841;28;20076;-52
2023/01/06 01:44:43;;;;;;;9.30;3.25;;;;;;;9.75;100.00;101572.06;5069858;28;20097;-53
2023/01/06 01:47:15;;;;;;;9.88;3.58;;;;;;;9.75;100.00;101574.69;5070120;28;20098;-53
2023/01/06 01:49:48;;;;;;;7.90;3.10;;;;;;;9.76;100.00;101568.50;5073432;28;20059;-49
2023/01/06 01:52:18;;;;;;;8.48;3.33;;;;;;;9.79;100.00;101563.13;5105980;28;20102;-53
2023/01/06 01:54:47;;;;;;;7.75;2.70;;;;;;;9.73;100.00;101560.78;5073119;28;20048;-53
2023/01/06 01:57:19;;;;;;;8.52;3.20;;;;;;;9.73;100.00;101560.78;5073237;28;20041;-53
2023/01/06 01:59:47;;;;;;;8.77;2.95;;;;;;;9.74;100.00;101555.44;5071167;28;20041;-51
2023/01/06 02:02:19;;;;;;;8.82;3.63;;;;;;;9.74;100.00;101557.22;5068213;28;20049;-51
2023/01/06 02:04:53;;;;;;;8.48;2.88;;;;;;;9.76;100.00;101556.22;5072329;28;20119;-53
2023/01/06 02:07:25;;;;;;;8.05;2.70;;;;;;;9.78;100.00;101551.72;5072744;28;20375;-53
2023/01/06 02:09:58;;;;;;;;;;;;;;;9.78;100.00;101551.72;5073226;28;20055;-53
2023/01/06 02:12:27;;;;;;;8.18;2.38;;;;;;;9.79;100.00;101547.34;5072675;28;19921;-51
2023/01/06 02:14:55;;;;;;;5.70;2.78;;;;;;;9.79;100.00;101548.19;5069578;28;20047;-53
2023/01/06 02:17:53;;;;;;;6.95;2.47;;;;;;;9.79;100.00;101549.97;5068158;28;20049;-50
2023/01/06 02:20:54;;;;;;;5.65;2.10;;;;;;;9.78;100.00;101557.00;5072831;28;20052;-53
2023/01/06 02:23:41;;;;;;;6.25;2.42;;;;;;;9.78;100.00;101549.09;5072529;28;20430;-53
2023/01/06 02:26:41;;;;;;;5.75;2.17;;;;;;;9.80;100.00;101547.28;5072630;28;20105;-51
2023/01/06 02:29:57;;;;;;;6.57;2.45;;;;;;;9.73;100.00;101527.47;5055405;28;20076;-51
2023/01/06 02:32:36;;;;;;;7.40;2.30;;;;;;;9.76;100.00;101539.59;5072870;28;20040;-52
2023/01/06 02:35:20;;;;;;;6.15;2.08;;;;;;;9.77;100.00;101528.19;5072622;28;20518;-53
2023/01/06 02:38:03;;;;;;;5.00;1.85;;;;;;;9.67;100.00;101525.16;5071335;28;20110;-52
2023/01/06 02:40:49;;;;;;;6.57;2.20;;;;;;;9.69;100.00;101523.28;5068779;28;20074;-53
2023/01/06 02:43:28;;;;;;;4.68;2.25;;;;;;;9.68;100.00;101510.25;5069690;28;20049;-53
2023/01/06 02:46:07;;;;;;;6.13;2.15;;;;;;;9.64;100.00;101504.31;5070370;28;20052;-51
2023/01/06 02:48:44;;;;;;;8.23;2.45;;;;;;;9.68;100.00;101507.63;5072279;28;20048;-54
2023/01/06 02:51:18;;;;;;;5.85;2.28;;;;;;;9.67;100.00;101506.78;5072301;28;20106;-53
2023/01/06 02:54:00;;;;;;;8.93;2.63;;;;;;;9.67;100.00;101498.03;5072234;28;20561;-53
2023/01/06 02:56:33;;;;;;;7.17;2.23;;;;;;;9.68;100.00;101487.47;5072348;28;20093;-56
2023/01/06 02:59:05;;;;;;;6.25;2.33;;;;;;;9.69;100.00;101489.16;5072463;28;21021;-53
2023/01/06 03:01:37;;;;;;;6.60;2.75;;;;;;;9.71;100.00;101489.09;5072565;28;20045;-59
2023/01/06 03:04:09;;;;;;;;;;;;;;;9.70;100.00;101490.84;5072174;28;20052;-60
2023/01/06 03:06:43;;;;;;;5.65;2.08;;;;;;;9.68;100.00;101483.97;5071651;28;19920;-60
2023/01/06 03:09:14;;;;;;;7.68;2.28;;;;;;;9.64;100.00;101484.16;5070934;28;20640;-59
2023/01/06 03:11:46;;;;;;;6.43;1.95;;;;;;;9.67;100.00;101483.16;5072126;28;20056;-59
2023/01/06 03:14:21;;;;;;;5.70;2.70;;;;;;;9.64;100.00;101486.78;5072357;28;20503;-59
2023/01/06 03:16:50;;;;;;;9.98;2.40;;;;;;;9.61;100.00;101486.06;5072258;28;20169;-51
2023/01/06 03:19:19;;;;;;;6.68;2.03;;;;;;;9.64;100.00;101492.03;5071812;28;20048;-51
2023/01/06 03:21:50;;;;;;;5.35;1.80;;;;;;;9.69;100.00;101483.91;5069478;28;20040;-59
2023/01/06 03:24:19;;;;;;;6.97;2.10;;;;;;;9.69;100.00;101473.41;5067329;28;20121;-50
2023/01/06 03:26:51;;;;;;;5.50;1.70;;;;;;;9.66;100.00;101473.56;5070917;28;20048;-60
2023/01/06 03:29:20;;;;;;;6.15;1.75;;;;;;;9.68;100.00;101470.84;5068455;28;20458;-59
2023/01/06 03:31:58;;;;;;;6.95;2.00;;;;;;;9.63;100.00;101469.31;5069938;28;20139;-53
2023/01/06 03:34:41;;;;;;;4.72;1.98;;;;;;;9.64;100.00;101478.91;5104025;28;20496;-53
2023/01/06 03:37:20;;;;;;;5.25;1.85;;;;;;;9.60;100.00;101464.22;5071492;28;20110;-53
2023/01/06 03:39:58;;;;;;;5.50;1.60;;;;;;;9.63;100.00;101471.94;5071601;28;20055;-52
2023/01/06 03:45:35;;;;;;;4.40;1.55;;;;;;;9.66;100.00;101462.22;5068274;28;20050;-59
2023/01/06 03:48:11;;;;;;;5.68;1.50;;;;;;;9.63;100.00;101460.59;5067838;28;20044;-59
2023/01/06 03:50:48;;;;;;;8.60;1.58;;;;;;;9.65;100.00;101458.72;5071811;28;20049;-59
2023/01/06 03:53:25;;;;;;;6.80;1.80;;;;;;;9.72;100.00;101456.63;5071528;28;20070;-59
2023/01/06 03:56:05;;;;;;;5.03;1.50;;;;;;;9.68;100.00;101458.59;5071950;28;20044;-59
2023/01/06 03:58:36;;;;;;;5.72;1.52;;;;;;;9.67;100.00;101454.25;5075527;28;20422;-59
2023/01/06 04:01:05;;;;;;;4.35;1.30;;;;;;;9.67;100.00;101443.75;5075349;28;20446;-59
2023/01/06 04:03:34;;;;;;;5.30;1.50;;;;;;;9.70;100.00;101446.22;5075387;28;20538;-59
2023/01/06 04:06:04;;;;;;;6.28;1.48;;;;;;;9.67;100.00;101446.38;5075313;28;20070;-59
2023/01/06 04:08:32;;;;;;;5.97;1.60;;;;;;;9.67;100.00;101437.63;5074245;28;20094;-59
2023/01/06 04:11:00;;;;;;;6.07;1.58;;;;;;;9.66;100.00;101451.72;5071729;28;20052;-59
2023/01/06 04:13:28;;;;;;;3.13;1.40;;;;;;;9.67;100.00;101462.13;5073567;28;20110;-59
2023/01/06 04:15:56;;;;;;;7.07;1.48;;;;;;;9.64;100.00;101457.03;5075431;28;20720;-59
2023/01/06 04:18:24;;;;;;;8.20;1.42;;;;;;;9.69;100.00;101433.16;5074803;28;20102;-59
2023/01/06 04:20:52;;;;;;;4.90;1.20;;;;;;;9.65;100.00;101429.84;5075185;28;20088;-60
2023/01/06 04:23:22;;;;;;;3.72;1.60;;;;;;;9.63;100.00;101422.03;5073978;28;20052;-59
2023/01/06 04:25:51;;;;;;;5.20;1.55;;;;;;;9.65;100.00;101419.31;5071139;28;20068;-59
2023/01/06 04:28:19;;;;;;;3.83;1.20;;;;;;;9.66;100.00;101404.44;5073609;28;20503;-53
2023/01/06 04:30:47;;;;;;;4.63;1.20;;;;;;;9.63;100.00;101408.91;5074903;28;20115;-53
2023/01/06 04:33:15;;;;;;;6.20;1.20;;;;;;;9.64;100.00;101402.72;5074745;28;20129;-53
2023/01/06 04:35:43;;;;;;;5.72;1.50;;;;;;;9.62;100.00;101388.81;5074412;28;20053;-53
2023/01/06 04:38:11;;;;;;;7.22;1.35;;;;;;;9.68;100.00;101384.19;5074570;28;20499;-53
2023/01/06 04:40:41;;;;;;;3.05;1.10;;;;;;;9.66;100.00;101376.38;5074101;28;20086;-53
2023/01/06 04:43:14;;;;;;;6.65;1.40;;;;;;;9.64;100.00;101368.59;5074197;28;20094;-51
2023/01/06 04:45:43;;;;;;;6.43;1.58;;;;;;;9.66;100.00;101372.91;5074314;28;20060;-49
2023/01/06 04:48:12;;;;;;;2.85;1.50;;;;;;;9.61;100.00;101363.50;5074638;28;20044;-53
2023/01/06 04:50:41;;;;;;;4.25;1.40;;;;;;;9.63;100.00;101358.16;5074564;28;20047;-51
2023/01/06 04:53:10;;;;;;;3.20;1.20;;;;;;;9.61;100.00;101353.00;5074792;28;20048;-53
2023/01/06 04:55:39;;;;;;;4.20;1.30;;;;;;;9.61;100.00;101341.63;5071514;28;20056;-54
2023/01/06 04:58:09;;;;;;;3.42;1.40;;;;;;;9.62;100.00;101338.91;5070938;28;20489;-53
2023/01/06 05:00:37;;;;;;;6.75;1.33;;;;;;;9.64;100.00;101331.81;5073342;28;20051;-52
2023/01/06 05:03:05;;;;;;;5.70;1.67;;;;;;;9.61;100.00;101332.00;5069105;28;20048;-53
2023/01/06 05:05:33;;;;;;;4.75;1.40;;;;;;;9.62;100.00;101338.09;5072342;28;20434;-53
2023/01/06 05:08:01;;;;;;;4.22;1.58;;;;;;;9.61;100.00;101337.25;5073540;28;20041;-51
2023/01/06 05:10:29;;;;;;;5.18;1.40;;;;;;;9.61;100.00;101332.00;5074235;28;20049;-50
2023/01/06 05:12:57;;;;;;;3.85;1.33;;;;;;;9.61;100.00;101320.63;5074176;28;20095;-52
2023/01/06 05:15:27;;;;;;;3.60;1.40;;;;;;;9.64;100.00;101318.69;5074121;28;20052;-50
2023/01/06 05:17:55;;;;;;;7.28;1.50;;;;;;;9.61;100.00;101316.25;5074220;28;20043;-60
2023/01/06 05:20:23;;;;;;;4.68;1.25;;;;;;;9.66;100.00;101318.59;5074241;28;20045;-59
2023/01/06 05:22:51;;;;;;;4.63;1.38;;;;;;;9.63;100.00;101330.13;5073848;28;20090;-60
2023/01/06 05:25:19;;;;;;;5.22;1.30;;;;;;;9.69;100.00;101338.59;5070769;28;20119;-60
2023/01/06 05:27:48;;;;;;;7.18;1.35;;;;;;;9.68;100.00;101336.91;5070818;28;20103;-60
2023/01/06 05:30:16;;;;;;;3.33;1.17;;;;;;;9.71;100.00;101334.13;5073583;28;20048;-60
2023/01/06 05:32:45;;;;;;;4.22;1.38;;;;;;;9.69;100.00;101318.44;5073658;28;20046;-60
2023/01/06 05:35:14;;;;;;;4.32;1.30;;;;;;;9.68;100.00;101322.00;5073494;28;20063;-60
2023/01/06 05:37:42;;;;;;;6.10;1.52;;;;;;;9.71;100.00;101321.00;5073036;28;20114;-60
2023/01/06 05:40:11;;;;;;;5.45;1.27;;;;;;;9.69;100.00;101307.94;5070367;28;20068;-60
2023/01/06 05:42:39;;;;;;;4.28;1.42;;;;;;;9.68;100.00;101323.78;5070729;28;20041;-60
2023/01/06 05:45:09;;;;;;;4.10;1.33;;;;;;;9.71;100.00;101326.25;5073503;28;20503;-60
2023/01/06 05:47:39;;;;;;;4.88;1.38;;;;;;;9.71;100.00;101316.59;5073501;28;20384;-60
2023/01/06 05:50:09;;;;;;;5.03;1.20;;;;;;;9.74;100.00;101324.28;5072958;28;20551;-60
2023/01/06 05:52:37;;;;;;;5.10;1.30;;;;;;;9.74;100.00;101320.84;5069894;28;20407;-60
2023/01/06 05:55:06;;;;;;;3.33;1.30;;;;;;;9.72;100.00;101328.78;5070864;28;20083;-60
2023/01/06 05:57:34;;;;;;;3.30;1.25;;;;;;;9.70;100.00;101330.66;5073326;28;20080;-53
2023/01/06 06:00:04;;;;;;;3.33;1.08;;;;;;;9.71;100.00;101326.25;5069863;28;20131;-60
2023/01/06 06:02:32;;;;;;;3.28;1.20;;;;;;;9.74;100.00;101332.16;5067731;28;20059;-60
2023/01/06 06:05:00;;;;;;;4.15;1.30;;;;;;;9.75;100.00;101330.41;5072722;28;20175;-60
2023/01/06 06:07:29;;;;;;;2.40;1.25;;;;;;;9.75;100.00;101333.88;5072987;28;20044;-60
2023/01/06 06:09:58;;;;;;;2.97;1.30;;;;;;;9.74;100.00;101331.34;5073035;28;20037;-60
2023/01/06 06:12:26;;;;;;;5.25;1.23;;;;;;;9.76;100.00;101329.47;5069212;28;20395;-60
2023/01/06 06:14:54;;;;;;;5.03;1.30;;;;;;;9.77;100.00;101331.16;5068532;28;20055;-60
2023/01/06 06:17:24;;;;;;;6.72;1.20;;;;;;;9.77;100.00;101329.38;5073220;28;20048;-59
2023/01/06 06:19:52;;;;;;;4.05;1.52;;;;;;;9.76;100.00;101318.94;5070863;28;20483;-60
2023/01/06 06:22:20;;;;;;;6.00;1.60;;;;;;;9.75;100.00;101320.75;5068268;28;20082;-60
2023/01/06 06:24:50;;;;;;;6.63;1.38;;;;;;;9.72;100.00;101317.41;5071074;28;20403;-59
2023/01/06 06:27:18;;;;;;;5.65;1.50;;;;;;;9.69;100.00;101325.47;5072785;28;20032;-59
2023/01/06 06:29:47;;;;;;;6.90;1.73;;;;;;;9.66;100.00;101317.78;5072673;28;20557;-60
2023/01/06 06:32:15;;;;;;;3.05;1.40;;;;;;;9.64;100.00;101320.47;5072579;28;20511;-60
2023/01/06 06:34:43;;;;;;;2.88;1.30;;;;;;;9.69;100.00;101307.09;5070511;28;20082;-60
2023/01/06 06:37:11;;;;;;;3.42;1.35;;;;;;;9.71;100.00;101318.38;5069428;28;20051;-53
2023/01/06 06:39:39;;;;;;;4.05;1.50;;;;;;;9.67;100.00;101319.44;5071154;28;20471;-59
2023/01/06 06:42:09;;;;;;;2.05;1.27;;;;;;;9.68;100.00;101327.25;5071799;28;20056;-59
2023/01/06 06:44:37;;;;;;;2.97;1.27;;;;;;;9.69;100.00;101322.84;5072634;28;20045;-52
2023/01/06 06:47:05;;;;;;;4.60;1.48;;;;;;;9.67;100.00;101319.44;5071207;28;20049;-53
2023/01/06 06:49:33;;;;;;;3.92;1.50;;;;;;;9.68;100.00;101318.53;5068538;28;20110;-60
2023/01/06 06:52:01;;;;;;;3.28;1.30;;;;;;;9.76;100.00;101316.31;5070499;28;20044;-59
2023/01/06 06:54:29;;;;;;;3.58;1.20;;;;;;;9.73;100.00;101314.72;5072453;28;20060;-60
2023/01/06 06:56:57;;;;;;;4.05;1.70;;;;;;;9.71;100.00;101326.25;5072347;28;20379;-54
2023/01/06 06:59:27;;;;;;;3.95;1.33;;;;;;;9.72;100.00;101327.94;5069431;28;20055;-59
2023/01/06 07:01:55;;;;;;;4.72;1.52;;;;;;;9.75;100.00;101327.78;5069390;28;20047;-60
2023/01/06 07:04:24;;;;;;;2.83;1.52;;;;;;;9.71;100.00;101327.09;5072412;28;20055;-60
2023/01/06 07:06:52;;;;;;;4.10;2.03;;;;;;;9.73;100.00;101319.13;5072663;28;20507;-60
2023/01/06 07:09:20;;;;;;;4.68;1.80;;;;;;;9.73;100.00;101314.72;5071749;28;20037;-60
2023/01/06 07:11:48;;;;;;;5.25;1.50;;;;;;;9.71;100.00;101311.34;5072005;28;20056;-53
2023/01/06 07:14:16;;;;;;;5.80;1.58;;;;;;;9.73;100.00;101325.22;5072292;28;20115;-53
2023/01/06 07:16:46;;;;;;;4.97;1.70;;;;;;;9.76;100.00;101316.31;5068258;28;20063;-52
2023/01/06 07:19:14;;;;;;;3.70;1.48;;;;;;;9.77;100.00;101318.03;5067945;28;20048;-51
2023/01/06 07:21:42;;;;;;;4.18;1.70;;;;;;;9.73;100.00;101333.09;5070658;28;20044;-51
2023/01/06 07:24:10;;;;;;;4.07;1.45;;;;;;;9.72;100.00;101320.91;5072029;28;20044;-51
2023/01/06 07:26:38;;;;;;;3.45;1.50;;;;;;;9.68;100.00;101326.41;5072189;28;20045;-51
2023/01/06 07:29:06;;;;;;;3.42;1.58;;;;;;;9.68;100.00;101324.63;5103059;28;20503;-53
2023/01/06 07:31:35;;;;;;;3.58;1.58;;;;;;;9.71;100.00;101324.47;5068582;28;20196;-54
2023/01/06 07:34:04;;;;;;;3.38;1.88;;;;;;;9.77;100.00;101331.16;5074876;28;20040;-54
2023/01/06 07:36:32;;;;;;;2.60;1.50;;;;;;;9.68;100.00;101336.91;5075949;28;20056;-52
2023/01/06 07:39:00;;;;;;;3.70;1.98;;;;;;;9.64;100.00;101325.75;5076372;28;20068;-51
2023/01/06 07:41:28;;;;;;;4.30;2.40;;;;;;;9.55;100.00;101331.47;5073140;28;20060;-53
2023/01/06 07:43:56;;;;;;;6.15;2.20;;;;;;;9.55;100.00;101328.84;5071070;28;20048;-53
2023/01/06 07:46:25;;;;;;;5.07;2.47;;;;;;;9.58;100.00;101340.00;5073796;28;20048;-51
2023/01/06 07:48:53;;;;;;;4.28;2.40;;;;;;;9.47;100.00;101324.00;5074493;28;20052;-53
2023/01/06 07:51:22;;;;;;;3.58;2.25;;;;;;;9.47;100.00;101318.75;5074278;28;20052;-50
2023/01/06 07:53:51;;;;;;;5.43;2.33;;;;;;;9.41;100.00;101324.31;5076033;28;20052;-52
2023/01/06 07:56:20;;;;;;;5.38;2.60;;;;;;;9.40;100.00;101344.47;5075148;28;20052;-52
2023/01/06 07:58:48;;;;;;;7.63;3.28;;;;;;;9.38;100.00;101348.09;5075165;28;20048;-54
2023/01/06 08:01:16;;;;;;;5.47;3.13;;;;;;;9.37;100.00;101357.75;5074748;28;20048;-54
2023/01/06 08:03:45;;;;;;;6.80;3.20;;;;;;;9.39;100.00;101371.63;5070390;28;20087;-53
2023/01/06 08:06:13;;;;;;;6.03;3.25;;;;;;;9.45;100.00;101376.59;5072430;28;20041;-52
2023/01/06 08:08:43;;;;;;;7.60;3.72;;;;;;;9.44;100.00;101377.50;5075192;28;20055;-53
2023/01/06 08:11:12;;;;;;;8.15;4.28;;;;;;;9.41;100.00;101382.91;5075354;28;20052;-53
2023/01/06 08:13:40;;;;;;;7.18;3.83;;;;;;;9.43;100.00;101388.94;5072985;28;20052;-59
2023/01/06 08:16:12;;;;;;;7.13;4.18;;;;;;;9.41;100.00;101400.47;5071448;28;20060;-61
2023/01/06 08:18:40;;;;;;;8.23;4.70;;;;;;;9.40;100.00;101404.00;5075458;28;20554;-60
2023/01/06 08:21:10;;;;;;;7.45;4.57;;;;;;;9.40;100.00;101417.97;5075258;28;20040;-60
2023/01/06 08:23:39;;;;;;;7.72;4.72;;;;;;;9.38;100.00;101421.59;5073741;28;20106;-59
2023/01/06 08:26:12;;;;;;;7.88;5.22;;;;;;;9.39;100.00;101426.75;5074641;28;20418;-59
2023/01/06 08:28:40;;;;;;;6.63;4.40;;;;;;;9.38;100.00;101434.72;5069337;28;20403;-59
2023/01/06 08:31:09;;;;;;;6.28;4.22;;;;;;;9.41;100.00;101430.19;5058370;28;20128;-60
2023/01/06 08:33:37;;;;;;;7.70;4.93;;;;;;;9.38;100.00;101442.59;5060152;28;20467;-59
2023/01/06 08:36:13;;;;;;;6.85;4.72;;;;;;;9.41;100.00;101440.69;5057787;28;20522;-59
2023/01/06 08:38:41;;;;;;;5.95;3.55;;;;;;;9.38;100.00;101439.97;5058389;28;20049;-59
2023/01/06 08:41:13;;;;;;;6.25;4.20;;;;;;;9.43;100.00;101448.47;5063959;28;20120;-59
2023/01/06 08:43:44;;;;;;;5.72;3.92;;;;;;;9.41;100.00;101452.97;5069418;28;20041;-59
2023/01/06 08:46:15;;;;;;;7.25;3.53;;;;;;;9.41;100.00;101453.81;5060062;28;20076;-59
2023/01/06 08:48:45;;;;;;;6.82;3.83;;;;;;;9.40;100.00;101465.22;5062729;28;20055;-59
2023/01/06 08:51:15;;;;;;;6.22;4.00;;;;;;;9.39;100.00;101468.78;5069113;28;20488;-59
2023/01/06 08:53:45;;;;;;;6.63;4.45;;;;;;;9.37;100.00;101465.38;5067977;28;20052;-59
2023/01/06 08:56:17;;;;;;;7.43;4.63;;;;;;;9.39;100.00;101478.44;5056566;28;20065;-59
2023/01/06 08:58:51;;;;;;;8.35;5.13;;;;;;;9.37;100.00;101475.88;5063342;28;20056;-59
2023/01/06 09:01:21;;;;;;;7.53;4.70;;;;;;;9.37;100.00;101480.31;5073307;28;20040;-60
2023/01/06 09:03:49;;;;;;;7.05;4.57;;;;;;;9.39;100.00;101488.94;5074248;28;20048;-59
2023/01/06 09:06:18;;;;;;;7.80;4.80;;;;;;;9.47;100.00;101492.03;5074007;28;20404;-59
2023/01/06 09:08:48;;;;;;;8.57;4.95;;;;;;;9.46;100.00;101493.81;5073225;28;20423;-60
2023/01/06 09:11:18;;;;;;;8.15;5.05;;;;;;;9.52;100.00;101499.69;5073233;28;20045;-60
2023/01/06 09:13:46;;;;;;;6.80;4.70;;;;;;;9.59;100.00;101504.53;5061146;28;20052;-59
2023/01/06 09:16:14;;;;;;;7.28;4.50;;;;;;;9.57;100.00;101508.16;5070505;28;20040;-59
2023/01/06 09:18:47;;;;;;;7.85;4.13;;;;;;;9.57;100.00;101519.53;5073276;28;20067;-59
2023/01/06 09:21:16;;;;;;;7.75;3.70;;;;;;;9.62;100.00;101512.25;5070817;28;20045;-59
2023/01/06 09:23:44;;;;;;;7.05;3.58;;;;;;;9.69;100.00;101519.84;5071315;28;20090;-59
2023/01/06 09:26:13;;;;;;;8.75;3.10;;;;;;;9.65;100.00;101519.13;5073704;28;20052;-59
2023/01/06 09:28:43;;;;;;;6.13;2.47;;;;;;;9.66;100.00;101522.63;5071795;28;20043;-59
2023/01/06 09:31:14;;;;;;;5.57;2.70;;;;;;;9.71;100.00;101526.72;5068676;28;20044;-59
2023/01/06 09:33:43;;;;;;;6.53;2.47;;;;;;;9.69;100.00;101522.47;5073608;28;20051;-60
2023/01/06 09:36:12;;;;;;;9.02;2.40;;;;;;;9.69;100.00;101530.34;5073777;28;20066;-52
2023/01/06 09:38:40;;;;;;;7.10;2.05;;;;;;;9.70;100.00;101532.06;5069769;28;20123;-59
2023/01/06 09:41:39;;;;;;;9.30;2.40;;;;;;;9.68;100.00;101531.25;5073676;28;20064;-54
2023/01/06 09:44:13;;;;;;;8.25;2.35;;;;;;;9.68;100.00;101537.38;5068103;28;20514;-60
2023/01/06 09:46:45;;;;;;;6.10;2.15;;;;;;;9.67;100.00;101534.81;5070325;28;20036;-60
2023/01/06 09:49:20;;;;;;;10.48;2.72;;;;;;;9.73;100.00;101540.59;5073677;28;20109;-59
2023/01/06 09:51:48;;;;;;;5.40;2.03;;;;;;;9.79;100.00;101542.94;5073389;28;20590;-60
2023/01/06 09:54:21;;;;;;;7.93;3.10;;;;;;;9.82;100.00;101534.88;5073203;28;20063;-60
2023/01/06 09:56:54;;;;;;;7.72;2.72;;;;;;;9.82;100.00;101531.44;5071080;28;20095;-60
2023/01/06 09:59:30;;;;;;;8.50;3.05;;;;;;;9.89;100.00;101532.78;5066581;28;20040;-60
2023/01/06 10:02:00;;;;;;;7.72;2.65;;;;;;;9.99;100.00;101543.69;5073873;28;20054;-60
2023/01/06 10:04:30;;;;;;;8.20;2.50;;;;;;;9.97;100.00;101549.00;5070149;28;20070;-60
2023/01/06 10:07:13;;;;;;;8.25;3.00;;;;;;;10.06;100.00;101557.34;5072289;28;20049;-60
2023/01/06 10:09:51;;;;;;;6.53;2.45;;;;;;;10.06;100.00;101552.97;5072687;28;20051;-60
2023/01/06 10:12:31;;;;;;;11.00;2.55;;;;;;;10.07;100.00;101565.16;5073400;28;20048;-60
2023/01/06 10:15:14;;;;;;;11.02;2.28;;;;;;;10.12;100.00;101568.41;5071830;28;20140;-60
2023/01/06 10:17:57;;;;;;;10.43;2.33;;;;;;;10.07;100.00;101572.19;5072122;28;20120;-60
2023/01/06 10:20:41;;;;;;;8.35;2.47;;;;;;;10.10;100.00;101580.78;5064703;28;20063;-60
2023/01/06 10:23:26;;;;;;;10.25;2.08;;;;;;;10.08;100.00;101576.53;5057069;28;20041;-60
2023/01/06 10:25:58;;;;;;;9.07;2.00;;;;;;;10.14;100.00;101576.22;5060408;28;20041;-60
2023/01/06 10:28:29;;;;;;;6.45;1.80;;;;;;;10.12;100.00;101584.19;5057001;28;20051;-60
2023/01/06 10:31:04;;;;;;;9.57;2.05;;;;;;;10.09;100.00;101576.47;5052548;28;20044;-60
2023/01/06 10:33:36;;;;;;;7.32;1.88;;;;;;;10.05;100.00;101574.03;5056862;28;20524;-60
2023/01/06 10:36:10;;;;;;;11.98;2.28;;;;;;;10.11;100.00;101573.75;5067910;28;20047;-60
2023/01/06 10:38:43;;;;;;;8.38;2.00;;;;;;;10.12;100.00;101568.41;5069828;28;20104;-60
2023/01/06 10:41:19;;;;;;;6.35;1.88;;;;;;;10.10;100.00;101569.41;5072376;28;20040;-60
2023/01/06 10:43:48;;;;;;;7.40;1.48;;;;;;;10.10;100.00;101565.03;5072149;28;20078;-61
2023/01/06 10:46:17;;;;;;;6.35;1.40;;;;;;;10.10;100.00;101564.16;5071589;28;20078;-60
2023/01/06 10:48:48;;;;;;;5.22;1.27;;;;;;;10.04;100.00;101567.94;5072361;28;20123;-60
2023/01/06 10:51:38;;;;;;;9.73;1.65;;;;;;;10.03;100.00;101570.66;5072197;28;20135;-60
2023/01/06 10:54:10;;;;;;;8.93;1.42;;;;;;;10.03;100.00;101566.25;5069380;28;20114;-60
2023/01/06 10:56:43;;;;;;;3.38;1.20;;;;;;;10.06;100.00;101570.50;5071989;28;20052;-60
2023/01/06 10:59:13;;;;;;;5.38;1.60;;;;;;;10.03;100.00;101576.75;5072216;28;20101;-60
2023/01/06 11:01:50;;;;;;;4.45;1.08;;;;;;;10.11;100.00;101581.63;5072522;28;20135;-60
2023/01/06 11:04:20;;;;;;;7.88;1.27;;;;;;;10.10;100.00;101575.53;5069592;28;20045;-60
2023/01/06 11:06:55;;;;;;;8.52;1.58;;;;;;;10.16;100.00;101571.72;5066796;28;20509;-60
2023/01/06 11:09:30;;;;;;;4.68;1.27;;;;;;;10.15;100.00;101585.81;5056050;28;20047;-60
2023/01/06 11:12:02;;;;;;;6.68;1.23;;;;;;;10.16;100.00;101582.25;5066490;28;20048;-60
2023/01/06 11:14:33;;;;;;;8.02;1.30;;;;;;;10.20;100.00;101582.91;5069175;28;20045;-60
2023/01/06 11:17:06;;;;;;;8.70;1.40;;;;;;;10.16;100.00;101590.13;5071919;28;20048;-60
2023/01/06 11:19:37;;;;;;;6.53;1.17;;;;;;;10.26;100.00;101591.34;5072072;28;20041;-60
2023/01/06 11:22:26;;;;;;;8.73;1.27;;;;;;;10.18;100.00;101593.50;5071099;28;20043;-60
2023/01/06 11:24:57;;;;;;;5.85;1.08;;;;;;;10.17;100.00;101605.00;5069916;28;20044;-60
2023/01/06 11:27:25;;;;;;;5.57;0.95;;;;;;;10.13;100.00;101599.03;5067948;28;20052;-60
2023/01/06 11:29:53;;;;;;;7.93;1.33;;;;;;;10.11;100.00;101606.13;5071175;28;20556;-60
2023/01/06 11:32:26;;;;;;;8.40;1.10;;;;;;;10.11;100.00;101594.78;5070623;28;20041;-60
2023/01/06 11:34:57;;;;;;;5.68;0.95;;;;;;;10.07;100.00;101596.69;5067864;28;20112;-60
2023/01/06 11:37:34;;;;;;;6.78;1.20;;;;;;;10.08;100.00;101595.78;5068421;28;20059;-60
2023/01/06 11:40:18;;;;;;;6.63;1.38;;;;;;;10.17;100.00;101601.50;5071979;28;20056;-60
2023/01/06 11:42:49;;;;;;;7.78;1.08;;;;;;;10.11;100.00;101586.88;5072067;28;20391;-60
2023/01/06 11:45:36;;;;;;;6.97;1.00;;;;;;;10.17;100.00;101597.09;5069710;28;20047;-60
2023/01/06 11:48:13;;;;;;;9.27;1.08;;;;;;;10.23;100.00;101588.03;5066035;28;20055;-60
2023/01/06 11:50:41;;;;;;;5.05;1.20;;;;;;;10.25;100.00;101594.94;5070653;28;20127;-61
2023/01/06 11:53:17;;;;;;;5.88;1.00;;;;;;;10.25;100.00;101594.94;5070771;28;20044;-61